createdAt,value
2023-05-10T00:00:24.714Z,100031.20
2023-05-10T00:01:56.550Z,100029.60
2023-05-10T00:03:28.427Z,100035.00
2023-05-10T00:05:00.383Z,100033.80
2023-05-10T00:06:32.591Z,100030.00
2023-05-10T00:08:04.622Z,100037.20
2023-05-10T00:09:36.486Z,100035.80
2023-05-10T00:11:08.265Z,100043.60
2023-05-10T00:12:40.022Z,100039.00
2023-05-10T00:14:13.047Z,100038.80
2023-05-10T00:15:44.726Z,100034.80
2023-05-10T00:17:16.538Z,100041.80
2023-05-10T00:18:48.316Z,100033.00
2023-05-10T00:20:20.092Z,100034.80
2023-05-10T00:21:52.006Z,100033.20
2023-05-10T00:23:23.689Z,100037.40
2023-05-10T00:24:58.777Z,100037.40
2023-05-10T00:26:30.573Z,100038.80
2023-05-10T00:28:02.788Z,100038.80
2023-05-10T00:29:34.986Z,100033.40
2023-05-10T00:31:06.787Z,100038.40
2023-05-10T00:32:38.523Z,100039.60
2023-05-10T00:34:10.419Z,100037.40
2023-05-10T00:35:42.268Z,100040.80
2023-05-10T00:37:14.657Z,100037.20
2023-05-10T00:38:46.712Z,100033.20
2023-05-10T00:40:18.697Z,100032.00
2023-05-10T00:41:52.871Z,100033.60
2023-05-10T00:43:24.670Z,100036.40
2023-05-10T00:44:56.587Z,100031.00
2023-05-10T00:46:29.143Z,100028.80
2023-05-10T00:48:04.756Z,100031.40
2023-05-10T00:49:37.725Z,100033.60
2023-05-10T00:51:09.967Z,100032.20
2023-05-10T00:52:43.894Z,100032.60
2023-05-10T00:54:16.720Z,100029.20
2023-05-10T00:55:48.592Z,100035.00
2023-05-10T00:57:21.047Z,100030.60
2023-05-10T00:58:52.867Z,100032.20
2023-05-10T01:00:24.666Z,100030.60
2023-05-10T01:01:59.091Z,100034.60
2023-05-10T01:03:31.625Z,100032.60
2023-05-10T01:05:04.746Z,100030.80
2023-05-10T01:06:36.673Z,100028.80
2023-05-10T01:08:09.605Z,100030.80
2023-05-10T01:09:41.494Z,100031.00
2023-05-10T01:11:13.257Z,100028.80
2023-05-10T01:12:48.117Z,100029.40
2023-05-10T01:14:21.471Z,100034.40
2023-05-10T01:15:53.809Z,100034.20
2023-05-10T01:17:26.523Z,100035.60
2023-05-10T01:18:58.504Z,100034.60
2023-05-10T01:20:41.643Z,100038.60
2023-05-10T01:22:54.888Z,100030.40
2023-05-10T01:24:58.583Z,100037.20
2023-05-10T01:27:28.904Z,100036.60
2023-05-10T01:29:30.894Z,100039.80
2023-05-10T01:31:43.272Z,100040.80
2023-05-10T01:33:37.011Z,100046.40
2023-05-10T01:35:37.392Z,100047.60
2023-05-10T01:37:18.959Z,100050.20
2023-05-10T01:38:58.326Z,100049.20
2023-05-10T01:40:44.000Z,100051.80
2023-05-10T01:42:22.792Z,100052.80
2023-05-10T01:44:36.965Z,100058.20
2023-05-10T01:46:19.039Z,100059.40
2023-05-10T01:48:15.117Z,100057.00
2023-05-10T01:49:52.863Z,100066.40
2023-05-10T01:51:30.310Z,100061.80
2023-05-10T01:53:04.548Z,100062.40
2023-05-10T01:54:42.561Z,100059.60
2023-05-10T01:56:16.695Z,100063.20
2023-05-10T01:57:58.009Z,100060.40
2023-05-10T01:59:40.094Z,100065.20
2023-05-10T02:01:14.553Z,100061.20
2023-05-10T02:02:49.627Z,100064.00
2023-05-10T02:04:25.659Z,100065.40
2023-05-10T02:05:59.087Z,100062.20
2023-05-10T02:07:34.231Z,100066.40
2023-05-10T02:09:08.944Z,100064.60
2023-05-10T02:10:42.805Z,100064.80
2023-05-10T02:12:16.489Z,100065.60
2023-05-10T02:13:51.479Z,100066.20
2023-05-10T02:15:25.742Z,100077.60
2023-05-10T02:17:00.481Z,100074.40
2023-05-10T02:18:35.795Z,100075.20
2023-05-10T02:20:11.304Z,100079.20
2023-05-10T02:21:45.750Z,100077.60
2023-05-10T02:23:19.240Z,100080.40
2023-05-10T02:24:52.066Z,100082.00
2023-05-10T02:26:26.222Z,100079.20
2023-05-10T02:28:01.038Z,100079.60
2023-05-10T02:29:34.818Z,100078.40
2023-05-10T02:31:07.968Z,100081.80
2023-05-10T02:32:41.061Z,100082.00
2023-05-10T02:34:14.681Z,100082.60
2023-05-10T02:35:48.097Z,100083.60
2023-05-10T02:37:22.686Z,100086.40
2023-05-10T02:38:55.172Z,100083.40
2023-05-10T02:40:29.594Z,100087.40
2023-05-10T02:42:03.299Z,100087.40
2023-05-10T02:43:36.793Z,100086.80
2023-05-10T02:45:14.134Z,100083.80
2023-05-10T02:46:48.880Z,100083.20
2023-05-10T02:48:20.672Z,100088.00
2023-05-10T02:49:54.172Z,100086.00
2023-05-10T02:51:32.587Z,100082.40
2023-05-10T02:53:12.610Z,100083.80
2023-05-10T02:54:53.293Z,100086.80
2023-05-10T02:56:40.970Z,100087.40
2023-05-10T02:58:12.767Z,100087.00
2023-05-10T02:59:45.962Z,100088.80
2023-05-10T03:01:17.930Z,100088.20
2023-05-10T03:02:49.827Z,100085.80
2023-05-10T03:04:21.891Z,100087.40
2023-05-10T03:05:56.724Z,100087.80
2023-05-10T03:07:28.563Z,100083.00
2023-05-10T03:09:00.931Z,100087.00
2023-05-10T03:10:39.141Z,100087.00
2023-05-10T03:13:27.661Z,100086.20
2023-05-10T03:15:51.685Z,100087.80
2023-05-10T03:17:31.864Z,100091.80
2023-05-10T03:19:22.029Z,100093.20
2023-05-10T03:21:08.107Z,100093.20
2023-05-10T03:22:50.794Z,100096.40
2023-05-10T03:24:28.387Z,100093.80
2023-05-10T03:26:02.750Z,100097.80
2023-05-10T03:27:39.895Z,100098.40
2023-05-10T03:29:15.180Z,100101.80
2023-05-10T03:30:48.079Z,100099.20
2023-05-10T03:32:20.214Z,100097.40
2023-05-10T03:33:53.696Z,100100.40
2023-05-10T03:35:30.445Z,100100.60
2023-05-10T03:37:02.282Z,100101.40
2023-05-10T03:38:35.498Z,100105.60
2023-05-10T03:40:09.480Z,100106.40
2023-05-10T03:41:42.588Z,100106.00
2023-05-10T03:43:14.374Z,100107.00
2023-05-10T03:44:46.247Z,100108.80
2023-05-10T03:46:18.167Z,100109.20
2023-05-10T03:47:50.229Z,100108.40
2023-05-10T03:49:22.015Z,100109.60
2023-05-10T03:50:53.744Z,100113.60
2023-05-10T03:52:25.515Z,100106.80
2023-05-10T03:53:57.793Z,100112.60
2023-05-10T03:55:30.405Z,100115.40
2023-05-10T03:57:02.184Z,100116.00
2023-05-10T03:58:36.250Z,100115.00
2023-05-10T04:00:09.190Z,100119.40
2023-05-10T04:01:46.967Z,100114.80
2023-05-10T04:03:19.389Z,100116.20
2023-05-10T04:04:51.689Z,100115.80
2023-05-10T04:06:23.499Z,100118.40
2023-05-10T04:07:56.435Z,100119.00
2023-05-10T04:09:28.210Z,100117.20
2023-05-10T04:11:10.606Z,100120.00
2023-05-10T04:12:42.664Z,100117.80
2023-05-10T04:14:14.402Z,100114.40
2023-05-10T04:15:46.341Z,100119.20
2023-05-10T04:17:18.160Z,100117.60
2023-05-10T04:18:50.197Z,100117.00
2023-05-10T04:20:21.894Z,100118.60
2023-05-10T04:21:54.737Z,100121.00
2023-05-10T04:23:26.914Z,100123.00
2023-05-10T04:24:58.590Z,100123.00
2023-05-10T04:26:30.503Z,100122.80
2023-05-10T04:28:02.203Z,100124.80
2023-05-10T04:29:33.966Z,100122.80
2023-05-10T04:31:09.055Z,100118.80
2023-05-10T04:32:40.907Z,100120.60
2023-05-10T04:34:12.757Z,100122.40
2023-05-10T04:35:45.684Z,100122.60
2023-05-10T04:37:18.097Z,100125.20
2023-05-10T04:38:49.806Z,100120.60
2023-05-10T04:40:21.669Z,100122.20
2023-05-10T04:41:53.976Z,100125.20
2023-05-10T04:43:25.719Z,100130.60
2023-05-10T04:44:57.539Z,100125.80
2023-05-10T04:46:29.368Z,100133.00
2023-05-10T04:48:01.189Z,100132.00
2023-05-10T04:49:33.252Z,100131.40
2023-05-10T04:51:05.069Z,100130.40
2023-05-10T04:52:37.541Z,100134.00
2023-05-10T04:54:09.512Z,100134.80
2023-05-10T04:55:41.554Z,100138.40
2023-05-10T04:57:13.324Z,100139.20
2023-05-10T04:58:45.071Z,100135.80
2023-05-10T05:00:17.765Z,100145.00
2023-05-10T05:01:49.925Z,100145.60
2023-05-10T05:03:21.958Z,100144.80
2023-05-10T05:04:53.653Z,100146.80
2023-05-10T05:06:26.109Z,100147.80
2023-05-10T05:07:57.861Z,100146.40
2023-05-10T05:09:29.638Z,100146.20
2023-05-10T05:11:01.527Z,100146.80
2023-05-10T05:12:33.232Z,100147.40
2023-05-10T05:14:05.003Z,100145.60
2023-05-10T05:15:36.806Z,100149.80
2023-05-10T05:17:09.270Z,100153.60
2023-05-10T05:18:41.157Z,100152.40
2023-05-10T05:20:14.075Z,100150.80
2023-05-10T05:21:45.859Z,100150.60
2023-05-10T05:23:17.884Z,100155.60
2023-05-10T05:24:49.676Z,100156.80
2023-05-10T05:26:22.335Z,100157.80
2023-05-10T05:27:54.122Z,100156.60
2023-05-10T05:29:25.874Z,100154.00
2023-05-10T05:30:57.729Z,100157.60
2023-05-10T05:32:29.873Z,100150.80
2023-05-10T05:34:02.351Z,100152.40
2023-05-10T05:35:35.185Z,100150.20
2023-05-10T05:37:07.790Z,100157.20
2023-05-10T05:38:41.096Z,100162.60
2023-05-10T05:40:15.781Z,100164.80
2023-05-10T05:41:48.490Z,100165.60
2023-05-10T05:43:20.334Z,100161.40
2023-05-10T05:44:52.226Z,100158.20
2023-05-10T05:46:23.994Z,100162.40
2023-05-10T05:47:55.989Z,100166.40
2023-05-10T05:49:27.779Z,100165.20
2023-05-10T05:50:59.754Z,100162.80
2023-05-10T05:52:31.688Z,100169.60
2023-05-10T05:54:05.240Z,100171.00
2023-05-10T05:55:37.034Z,100171.20
2023-05-10T05:57:08.901Z,100172.60
2023-05-10T05:58:40.811Z,100174.40
2023-05-10T06:00:13.404Z,100180.60
2023-05-10T06:01:45.494Z,100175.60
2023-05-10T06:03:17.642Z,100173.00
2023-05-10T06:04:49.419Z,100180.40
2023-05-10T06:06:21.139Z,100177.40
2023-05-10T06:07:52.991Z,100183.60
2023-05-10T06:09:25.551Z,100184.60
2023-05-10T06:10:57.376Z,100188.80
2023-05-10T06:12:29.146Z,100193.80
2023-05-10T06:14:01.963Z,100184.40
2023-05-10T06:15:33.789Z,100190.40
2023-05-10T06:17:06.160Z,100190.40
2023-05-10T06:18:38.374Z,100193.00
2023-05-10T06:20:10.949Z,100197.60
2023-05-10T06:21:42.792Z,100198.40
2023-05-10T06:23:14.579Z,100199.60
2023-05-10T06:24:46.295Z,100201.80
2023-05-10T06:26:18.382Z,100209.00
2023-05-10T06:27:53.586Z,100210.60
2023-05-10T06:29:25.799Z,100214.40
2023-05-10T06:30:57.519Z,100213.60
2023-05-10T06:32:29.637Z,100217.00
2023-05-10T06:34:01.604Z,100215.60
2023-05-10T06:35:34.412Z,100214.40
2023-05-10T06:37:06.352Z,100212.20
2023-05-10T06:38:38.304Z,100209.60
2023-05-10T06:40:10.726Z,100209.60
2023-05-10T06:41:42.995Z,100212.40
2023-05-10T06:43:14.946Z,100218.60
2023-05-10T06:44:46.790Z,100221.80
2023-05-10T06:46:18.746Z,100221.60
2023-05-10T06:47:50.706Z,100228.00
2023-05-10T06:49:23.032Z,100227.00
2023-05-10T06:50:54.894Z,100227.80
2023-05-10T06:52:26.572Z,100228.40
2023-05-10T06:53:58.332Z,100224.60
2023-05-10T06:55:30.325Z,100221.20
2023-05-10T06:57:08.808Z,100225.40
2023-05-10T06:58:44.983Z,100230.80
2023-05-10T07:00:18.225Z,100231.20
2023-05-10T07:01:50.325Z,100232.60
2023-05-10T07:03:22.213Z,100236.80
2023-05-10T07:04:54.240Z,100233.80
2023-05-10T07:06:33.289Z,100235.60
2023-05-10T07:08:05.610Z,100235.80
2023-05-10T07:09:37.460Z,100229.80
2023-05-10T07:11:09.265Z,100232.20
2023-05-10T07:12:41.194Z,100230.00
2023-05-10T07:14:12.998Z,100230.40
2023-05-10T07:15:45.749Z,100232.00
2023-05-10T07:17:17.552Z,100234.60
2023-05-10T07:18:49.471Z,100238.40
2023-05-10T07:20:21.341Z,100239.20
2023-05-10T07:21:53.118Z,100240.20
2023-05-10T07:23:24.928Z,100238.60
2023-05-10T07:24:56.672Z,100235.20
2023-05-10T07:26:28.339Z,100231.80
2023-05-10T07:28:00.243Z,100233.40
2023-05-10T07:29:32.149Z,100239.20
2023-05-10T07:31:04.158Z,100234.60
2023-05-10T07:32:36.124Z,100234.80
2023-05-10T07:34:07.883Z,100234.20
2023-05-10T07:35:39.878Z,100237.60
2023-05-10T07:37:11.640Z,100235.60
2023-05-10T07:38:43.436Z,100237.80
2023-05-10T07:40:15.148Z,100234.20
2023-05-10T07:41:49.682Z,100234.20
2023-05-10T07:43:21.476Z,100238.40
2023-05-10T07:44:53.181Z,100236.00
2023-05-10T07:46:24.979Z,100237.00
2023-05-10T07:47:56.875Z,100232.40
2023-05-10T07:49:28.844Z,100234.60
2023-05-10T07:51:00.612Z,100232.80
2023-05-10T07:52:32.368Z,100232.60
2023-05-10T07:54:04.281Z,100235.20
2023-05-10T07:55:36.038Z,100235.40
2023-05-10T07:57:07.740Z,100236.00
2023-05-10T07:58:39.396Z,100233.20
2023-05-10T08:00:14.640Z,100237.20
2023-05-10T08:01:46.961Z,100243.00
2023-05-10T08:03:18.880Z,100234.60
2023-05-10T08:04:50.752Z,100242.00
2023-05-10T08:06:23.092Z,100245.60
2023-05-10T08:07:54.985Z,100244.60
2023-05-10T08:09:26.890Z,100243.00
2023-05-10T08:10:58.581Z,100245.60
2023-05-10T08:12:30.372Z,100250.40
2023-05-10T08:14:02.589Z,100250.00
2023-05-10T08:15:34.374Z,100255.40
2023-05-10T08:17:06.245Z,100257.40
2023-05-10T08:18:39.594Z,100261.60
2023-05-10T08:20:13.861Z,100267.40
2023-05-10T08:21:46.865Z,100264.40
2023-05-10T08:23:18.730Z,100269.20
2023-05-10T08:24:50.524Z,100269.20
2023-05-10T08:26:22.588Z,100269.80
2023-05-10T08:27:54.412Z,100274.40
2023-05-10T08:29:26.820Z,100270.40
2023-05-10T08:31:00.468Z,100272.80
2023-05-10T08:32:32.461Z,100273.00
2023-05-10T08:34:04.225Z,100273.40
2023-05-10T08:35:36.116Z,100282.00
2023-05-10T08:37:08.337Z,100286.80
2023-05-10T08:38:40.330Z,100290.40
2023-05-10T08:40:13.331Z,100286.80
2023-05-10T08:41:48.983Z,100290.80
2023-05-10T08:43:21.007Z,100292.60
2023-05-10T08:44:54.966Z,100293.60
2023-05-10T08:46:29.453Z,100291.40
2023-05-10T08:48:05.933Z,100295.00
2023-05-10T08:49:38.876Z,100298.20
2023-05-10T08:51:15.956Z,100303.40
2023-05-10T08:52:53.276Z,100301.60
2023-05-10T08:54:25.402Z,100299.00
2023-05-10T08:55:57.930Z,100299.60
2023-05-10T08:57:29.808Z,100298.40
2023-05-10T08:59:02.050Z,100304.20
2023-05-10T09:00:35.347Z,100304.20
2023-05-10T09:02:08.351Z,100310.60
2023-05-10T09:03:41.078Z,100307.40
2023-05-10T09:05:13.647Z,100312.80
2023-05-10T09:06:45.569Z,100311.40
2023-05-10T09:08:18.598Z,100314.60
2023-05-10T09:09:51.683Z,100318.40
2023-05-10T09:11:23.902Z,100315.00
2023-05-10T09:12:59.314Z,100315.00
2023-05-10T09:14:35.117Z,100311.40
2023-05-10T09:16:20.411Z,100321.60
2023-05-10T09:17:53.807Z,100316.20
2023-05-10T09:19:25.739Z,100322.00
2023-05-10T09:20:57.562Z,100318.80
2023-05-10T09:22:29.349Z,100324.80
2023-05-10T09:24:06.137Z,100322.80
2023-05-10T09:25:39.558Z,100325.80
2023-05-10T09:27:11.573Z,100326.00
2023-05-10T09:28:59.631Z,100324.00
2023-05-10T09:30:32.496Z,100331.80
2023-05-10T09:32:04.484Z,100331.20
2023-05-10T09:33:46.897Z,100334.40
2023-05-10T09:35:24.646Z,100332.60
2023-05-10T09:37:03.867Z,100328.40
2023-05-10T09:38:55.229Z,100329.60
2023-05-10T09:40:30.321Z,100319.20
2023-05-10T09:42:10.219Z,100325.40
2023-05-10T09:43:43.979Z,100316.20
2023-05-10T09:45:16.030Z,100315.80
2023-05-10T09:46:53.733Z,100318.20
2023-05-10T09:48:26.134Z,100312.40
2023-05-10T09:50:03.961Z,100315.80
2023-05-10T09:51:37.029Z,100311.60
2023-05-10T09:53:09.007Z,100315.60
2023-05-10T09:54:54.652Z,100317.00
2023-05-10T09:56:38.515Z,100317.60
2023-05-10T09:58:13.274Z,100322.80
2023-05-10T09:59:45.461Z,100327.00
2023-05-10T10:01:17.789Z,100320.40
2023-05-10T10:03:00.393Z,100319.20
2023-05-10T10:04:32.712Z,100321.20
2023-05-10T10:06:18.688Z,100315.40
2023-05-10T10:07:59.999Z,100311.60
2023-05-10T10:09:32.953Z,100322.80
2023-05-10T10:11:04.941Z,100331.20
2023-05-10T10:12:36.751Z,100329.80
2023-05-10T10:14:08.537Z,100323.80
2023-05-10T10:15:40.670Z,100332.40
2023-05-10T10:17:13.998Z,100336.60
2023-05-10T10:18:45.980Z,100339.40
2023-05-10T10:20:21.162Z,100340.40
2023-05-10T10:21:53.076Z,100341.80
2023-05-10T10:23:25.050Z,100348.00
2023-05-10T10:24:56.859Z,100343.60
2023-05-10T10:26:28.963Z,100348.40
2023-05-10T10:28:37.904Z,100344.40
2023-05-10T10:30:47.142Z,100349.40
2023-05-10T10:32:44.970Z,100353.60
2023-05-10T10:34:31.594Z,100356.00
2023-05-10T10:36:05.266Z,100349.60
2023-05-10T10:37:48.898Z,100351.40
2023-05-10T10:39:21.714Z,100350.40
2023-05-10T10:41:52.577Z,100354.00
2023-05-10T10:43:26.528Z,100345.60
2023-05-10T10:45:14.767Z,100351.80
2023-05-10T10:47:24.029Z,100351.60
2023-05-10T10:49:11.636Z,100349.00
2023-05-10T10:50:47.792Z,100350.60
2023-05-10T10:52:37.363Z,100350.20
2023-05-10T10:54:13.036Z,100350.20
2023-05-10T10:55:49.665Z,100353.80
2023-05-10T10:57:25.002Z,100356.00
2023-05-10T10:59:00.876Z,100352.40
2023-05-10T11:00:38.251Z,100353.80
2023-05-10T11:02:10.733Z,100355.80
2023-05-10T11:04:18.481Z,100358.80
2023-05-10T11:05:52.956Z,100356.40
2023-05-10T11:07:25.582Z,100358.40
2023-05-10T11:08:57.356Z,100365.40
2023-05-10T11:10:29.780Z,100366.40
2023-05-10T11:12:09.444Z,100375.60
2023-05-10T11:13:42.513Z,100378.40
2023-05-10T11:15:14.541Z,100381.80
2023-05-10T11:16:46.952Z,100379.40
2023-05-10T11:18:25.449Z,100380.60
2023-05-10T11:20:11.490Z,100390.40
2023-05-10T11:22:04.811Z,100383.60
2023-05-10T11:23:57.195Z,100385.60
2023-05-10T11:25:29.440Z,100388.00
2023-05-10T11:27:02.087Z,100390.80
2023-05-10T11:28:34.433Z,100390.40
2023-05-10T11:30:08.818Z,100389.60
2023-05-10T11:31:46.348Z,100398.40
2023-05-10T11:33:20.566Z,100395.20
2023-05-10T11:34:52.449Z,100392.80
2023-05-10T11:36:30.615Z,100396.40
2023-05-10T11:38:02.614Z,100394.00
2023-05-10T11:39:34.662Z,100396.80
2023-05-10T11:41:06.528Z,100393.00
2023-05-10T11:42:39.225Z,100394.00
2023-05-10T11:44:10.990Z,100390.20
2023-05-10T11:45:43.520Z,100399.60
2023-05-10T11:47:15.432Z,100400.40
2023-05-10T11:48:50.937Z,100400.40
2023-05-10T11:50:22.870Z,100393.60
2023-05-10T11:52:05.022Z,100396.00
2023-05-10T11:53:37.120Z,100394.60
2023-05-10T11:55:09.002Z,100400.80
2023-05-10T11:56:42.157Z,100395.00
2023-05-10T11:58:14.035Z,100396.20
2023-05-10T11:59:46.655Z,100399.80
2023-05-10T12:01:18.855Z,100403.40
2023-05-10T12:02:51.145Z,100406.20
2023-05-10T12:04:23.583Z,100408.40
2023-05-10T12:05:57.388Z,100410.00
2023-05-10T12:07:29.270Z,100406.80
2023-05-10T12:09:08.592Z,100409.00
2023-05-10T12:10:40.968Z,100410.40
2023-05-10T12:12:18.727Z,100409.40
2023-05-10T12:13:51.269Z,100408.60
2023-05-10T12:15:25.574Z,100411.20
2023-05-10T12:16:58.682Z,100407.80
2023-05-10T12:18:30.750Z,100417.00
2023-05-10T12:20:24.855Z,100422.40
2023-05-10T12:21:56.707Z,100417.20
2023-05-10T12:23:28.618Z,100420.60
2023-05-10T12:25:00.733Z,100418.60
2023-05-10T12:26:33.797Z,100423.00
2023-05-10T12:28:10.162Z,100419.20
2023-05-10T12:29:45.475Z,100418.60
2023-05-10T12:31:17.470Z,100418.20
2023-05-10T12:32:50.734Z,100414.00
2023-05-10T12:34:26.799Z,100416.40
2023-05-10T12:36:00.473Z,100410.60
2023-05-10T12:37:36.860Z,100416.20
2023-05-10T12:39:08.551Z,100418.80
2023-05-10T12:40:40.310Z,100419.60
2023-05-10T12:42:12.924Z,100414.80
2023-05-10T12:43:46.529Z,100419.60
2023-05-10T12:45:19.538Z,100417.00
2023-05-10T12:46:51.331Z,100415.80
2023-05-10T12:48:23.569Z,100415.40
2023-05-10T12:49:55.456Z,100420.00
2023-05-10T12:51:27.260Z,100414.80
2023-05-10T12:52:59.091Z,100420.40
2023-05-10T12:54:30.994Z,100424.00
2023-05-10T12:56:02.966Z,100420.40
2023-05-10T12:57:34.772Z,100424.40
2023-05-10T12:59:06.630Z,100423.60
2023-05-10T13:00:38.950Z,100432.00
2023-05-10T13:02:11.256Z,100420.60
2023-05-10T13:03:44.126Z,100432.60
2023-05-10T13:05:15.988Z,100431.60
2023-05-10T13:06:48.206Z,100434.00
2023-05-10T13:08:19.936Z,100431.60
2023-05-10T13:09:51.720Z,100433.80
2023-05-10T13:11:23.422Z,100432.60
2023-05-10T13:12:55.184Z,100434.60
2023-05-10T13:14:28.053Z,100436.40
2023-05-10T13:15:59.848Z,100436.00
2023-05-10T13:17:32.221Z,100430.40
2023-05-10T13:19:06.138Z,100433.40
2023-05-10T13:20:38.238Z,100428.00
2023-05-10T13:22:09.927Z,100430.60
2023-05-10T13:23:41.628Z,100430.40
2023-05-10T13:25:14.214Z,100431.80
2023-05-10T13:26:46.579Z,100433.80
2023-05-10T13:28:18.317Z,100431.80
2023-05-10T13:29:50.134Z,100426.00
2023-05-10T13:31:22.259Z,100427.20
2023-05-10T13:32:54.065Z,100432.40
2023-05-10T13:34:25.934Z,100427.00
2023-05-10T13:35:57.709Z,100428.80
2023-05-10T13:37:30.417Z,100435.20
2023-05-10T13:39:03.894Z,100427.60
2023-05-10T13:40:36.958Z,100429.20
2023-05-10T13:42:08.709Z,100432.80
2023-05-10T13:43:40.690Z,100430.00
2023-05-10T13:45:14.168Z,100424.00
2023-05-10T13:46:48.862Z,100425.00
2023-05-10T13:48:20.657Z,100422.60
2023-05-10T13:49:55.535Z,100433.20
2023-05-10T13:51:27.222Z,100433.60
2023-05-10T13:52:58.947Z,100432.20
2023-05-10T13:54:32.531Z,100423.00
2023-05-10T13:56:04.462Z,100437.00
2023-05-10T13:57:37.171Z,100425.80
2023-05-10T13:59:08.974Z,100422.00
2023-05-10T14:00:41.209Z,100420.60
2023-05-10T14:02:14.193Z,100425.40
2023-05-10T14:03:46.434Z,100423.40
2023-05-10T14:05:19.931Z,100427.40
2023-05-10T14:06:54.152Z,100422.60
2023-05-10T14:08:28.049Z,100423.20
2023-05-10T14:10:01.914Z,100421.80
2023-05-10T14:11:33.704Z,100413.40
2023-05-10T14:13:05.648Z,100418.80
2023-05-10T14:14:37.469Z,100415.00
2023-05-10T14:16:09.499Z,100414.00
2023-05-10T14:17:41.418Z,100414.60
2023-05-10T14:19:13.287Z,100411.40
2023-05-10T14:20:45.061Z,100424.60
2023-05-10T14:22:16.860Z,100406.60
2023-05-10T14:23:48.757Z,100426.00
2023-05-10T14:25:20.753Z,100410.00
2023-05-10T14:26:54.924Z,100422.80
2023-05-10T14:28:27.203Z,100414.80
2023-05-10T14:29:59.076Z,100415.80
2023-05-10T14:31:31.497Z,100418.00
2023-05-10T14:33:03.992Z,100404.60
2023-05-10T14:34:36.116Z,100411.20
2023-05-10T14:36:08.446Z,100413.60
2023-05-10T14:37:40.258Z,100401.60
2023-05-10T14:39:13.803Z,100409.40
2023-05-10T14:40:46.090Z,100405.00
2023-05-10T14:42:17.901Z,100401.80
2023-05-10T14:43:49.653Z,100412.00
2023-05-10T14:45:22.362Z,100410.00
2023-05-10T14:46:54.121Z,100417.00
2023-05-10T14:48:26.013Z,100417.80
2023-05-10T14:49:57.897Z,100402.60
2023-05-10T14:51:29.807Z,100422.40
2023-05-10T14:53:01.824Z,100423.60
2023-05-10T14:54:34.608Z,100407.80
2023-05-10T14:56:07.004Z,100408.60
2023-05-10T14:57:39.095Z,100426.00
2023-05-10T14:59:11.079Z,100421.20
2023-05-10T15:00:44.472Z,100415.60
2023-05-10T15:02:17.323Z,100410.20
2023-05-10T15:03:49.736Z,100411.00
2023-05-10T15:05:22.744Z,100409.20
2023-05-10T15:07:00.254Z,100409.60
2023-05-10T15:08:32.108Z,100419.00
2023-05-10T15:10:04.806Z,100418.60
2023-05-10T15:11:36.813Z,100416.00
2023-05-10T15:13:08.614Z,100417.80
2023-05-10T15:14:40.539Z,100414.80
2023-05-10T15:16:12.234Z,100418.60
2023-05-10T15:17:44.520Z,100417.80
2023-05-10T15:19:16.403Z,100408.00
2023-05-10T15:20:48.179Z,100411.00
2023-05-10T15:22:20.133Z,100410.60
2023-05-10T15:23:52.364Z,100413.80
2023-05-10T15:25:24.747Z,100422.60
2023-05-10T15:26:56.665Z,100427.00
2023-05-10T15:28:28.476Z,100422.00
2023-05-10T15:30:00.753Z,100431.60
2023-05-10T15:31:32.780Z,100430.00
2023-05-10T15:33:04.582Z,100428.40
2023-05-10T15:34:37.214Z,100412.20
2023-05-10T15:36:09.207Z,100420.00
2023-05-10T15:37:41.057Z,100436.40
2023-05-10T15:39:13.071Z,100416.80
2023-05-10T15:40:44.773Z,100439.00
2023-05-10T15:42:16.985Z,100439.40
2023-05-10T15:43:48.867Z,100430.60
2023-05-10T15:45:21.283Z,100435.00
2023-05-10T15:46:53.206Z,100439.80
2023-05-10T15:48:25.125Z,100438.80
2023-05-10T15:49:56.984Z,100445.00
2023-05-10T15:51:28.888Z,100450.20
2023-05-10T15:53:00.712Z,100451.20
2023-05-10T15:54:32.523Z,100450.40
2023-05-10T15:56:04.941Z,100446.60
2023-05-10T15:57:37.040Z,100453.00
2023-05-10T15:59:10.650Z,100456.00
2023-05-10T16:00:42.471Z,100458.00
2023-05-10T16:02:14.581Z,100461.00
2023-05-10T16:03:46.515Z,100458.80
2023-05-10T16:05:19.097Z,100456.40
2023-05-10T16:06:51.107Z,100460.00
2023-05-10T16:08:23.016Z,100464.40
2023-05-10T16:09:54.914Z,100464.60
2023-05-10T16:11:27.027Z,100463.00
2023-05-10T16:12:59.341Z,100462.80
2023-05-10T16:14:31.145Z,100467.20
2023-05-10T16:16:02.983Z,100467.40
2023-05-10T16:17:34.725Z,100465.40
2023-05-10T16:19:06.607Z,100468.00
2023-05-10T16:20:38.881Z,100471.40
2023-05-10T16:22:10.656Z,100469.60
2023-05-10T16:23:43.247Z,100470.00
2023-05-10T16:25:15.493Z,100471.80
2023-05-10T16:26:47.658Z,100473.60
2023-05-10T16:28:21.198Z,100468.80
2023-05-10T16:29:53.106Z,100474.00
2023-05-10T16:31:25.012Z,100475.00
2023-05-10T16:32:58.206Z,100478.20
2023-05-10T16:34:30.076Z,100475.60
2023-05-10T16:36:01.854Z,100478.80
2023-05-10T16:37:33.754Z,100479.00
2023-05-10T16:39:05.747Z,100478.80
2023-05-10T16:40:37.590Z,100479.40
2023-05-10T16:42:09.323Z,100484.40
2023-05-10T16:43:41.121Z,100482.20
2023-05-10T16:45:13.217Z,100486.20
2023-05-10T16:46:45.663Z,100490.40
2023-05-10T16:48:17.452Z,100490.40
2023-05-10T16:49:49.320Z,100486.60
2023-05-10T16:51:21.465Z,100488.00
2023-05-10T16:52:53.226Z,100489.40
2023-05-10T16:54:25.133Z,100489.20
2023-05-10T16:55:57.551Z,100493.00
2023-05-10T16:57:29.510Z,100492.60
2023-05-10T16:59:01.590Z,100494.40
2023-05-10T17:00:33.675Z,100496.60
2023-05-10T17:02:05.572Z,100500.20
2023-05-10T17:03:37.635Z,100502.40
2023-05-10T17:05:09.990Z,100507.80
2023-05-10T17:06:42.188Z,100506.00
2023-05-10T17:08:14.301Z,100507.80
2023-05-10T17:09:47.163Z,100511.60
2023-05-10T17:11:21.143Z,100515.60
2023-05-10T17:12:53.686Z,100514.20
2023-05-10T17:14:25.487Z,100524.20
2023-05-10T17:15:57.497Z,100519.40
2023-05-10T17:17:29.608Z,100516.60
2023-05-10T17:19:01.442Z,100518.60
2023-05-10T17:20:34.058Z,100520.40
2023-05-10T17:22:06.024Z,100515.40
2023-05-10T17:23:37.868Z,100521.40
2023-05-10T17:25:10.678Z,100528.20
2023-05-10T17:26:42.487Z,100532.20
2023-05-10T17:28:14.440Z,100533.40
2023-05-10T17:29:46.225Z,100536.80
2023-05-10T17:31:18.606Z,100539.20
2023-05-10T17:32:50.584Z,100544.80
2023-05-10T17:34:22.722Z,100545.80
2023-05-10T17:35:56.575Z,100548.40
2023-05-10T17:37:28.390Z,100547.80
2023-05-10T17:39:00.956Z,100556.40
2023-05-10T17:40:33.243Z,100560.20
2023-05-10T17:42:05.656Z,100564.60
2023-05-10T17:43:37.534Z,100569.60
2023-05-10T17:45:10.924Z,100569.20
2023-05-10T17:46:42.711Z,100567.80
2023-05-10T17:48:14.529Z,100571.80
2023-05-10T17:49:46.340Z,100575.00
2023-05-10T17:51:20.394Z,100572.20
2023-05-10T17:52:52.384Z,100572.00
2023-05-10T17:54:24.253Z,100568.00
2023-05-10T17:56:01.267Z,100565.80